Terminal Aerodrome Forecast
Issued by NWS Twin Cities, MN

Home | Current Version | Previous Version | Graphics & Text | Print | Product List | Glossary On
Versions: 1 2 3 4 5 6 7 8 9 10 11 12 13 14 15 16 17 18 19 20 21 22 23 24 25
000
FTUS43 KMPX 310520
TAFMSP
TAF
KMSP 310520Z 3106/0112 13010KT P6SM VCSH FEW070 BKN250
      TEMPO 3109/3111 5SM -TSRA OVC060CB
     FM311100 13008KT P6SM -SHRA VCTS BKN050CB OVC100
     FM311300 16010KT P6SM VCSH SCT050 OVC100
     FM311700 20012KT P6SM VCSH BKN060 PROB30 3117/3119 -TSRA
      BKN050CB
     FM312000 23008KT P6SM SCT200=

USA.gov is the U.S. government's official web portal to all federal, state and local government web resources and services.